Historyczne dane pomiarowe

Dodano dane terminowe – wersja testowa.

Dane z okresu 1951-2019

Wersja bazy: 1.34 [2019-03-16, lista zmian], aktualizacja planowana na 2019-04-15

Dane meteo z obszaru Polski uzyskane na podstawie danych udostępnionych przez Instytut Meteorologii i Gospodarki Wodnej – Państwowy Instytut Badawczy.

 

Wybierz Datę:    

       

TemperaturaWilgotnośćWiatrCiśnienieOpadyŚniegCzas trwania zjawisk
 Stacja t tx tn tng RH VA  wxwx mslp ppp RRR   cm mm wxwxwxwxwxwxwx
1987-08-14 10.8 16.6 2.4- 79.0- 6.3 1.0---- 1.5------------
1987-08-13 10.4 14.5 4.0- 79.3- 4.7 1.0---- 0.0------------
1987-08-12 9.3 15.1 4.6- 78.0- 4.7 1.7---- 0.0------------
1987-08-11 10.9 14.8 8.3- 75.3- 7.3 1.3---- 0.9------------
1987-08-10 13.1 16.3 10.3- 75.3- 7.0 1.7---- 5.6------------
1987-08-09 13.8 21.1 4.6- 73.0- 3.7 1.3---- 0.0------------
1987-08-08 10.8 17.1 3.6- 69.8- 1.3 1.0---- 0.0------------
1987-08-07 8.2 11.5 5.3- 79.8- 5.7 1.0---- 0.0------------
1987-08-06 8.0 12.2 4.6- 78.0- 7.3 1.7---- 3.4------------
1987-08-05 9.9 13.4 6.5- 80.5- 8.0 1.0---- 0.3------------
1987-08-04 12.4 17.9 8.8- 92.0- 7.3 1.3---- 7.5------------
1987-08-03 13.7 18.7 9.5- 74.0- 4.7 2.0---- 0.0------------
1987-08-02 12.1 15.3 9.2- 76.0- 5.7 1.7---- 0.2------------
1987-08-01 13.1 19.1 5.3- 78.0- 3.7 1.7---- 2.3------------
1987-07-31 14.7 17.1 9.9- 82.0- 8.0 1.3---- 6.4------------
1987-07-30 15.1 22.1 7.7- 72.3- 2.0 1.3---- 0.0------------
1987-07-29 11.8 16.3 5.8- 72.5- 7.3 1.3---- 0.0------------
1987-07-28 11.2 14.4 8.8- 81.8- 8.0 1.7---- 3.5------------
1987-07-27 10.1 14.5 5.0- 69.0- 4.0 2.0---- 0.0------------
1987-07-26 11.5 18.1 7.8- 91.3- 8.0 1.3---- 19.6------------
1987-07-25 16.9 22.1 11.7- 74.0- 5.7 1.7---- 0.1------------
1987-07-24 18.3 26.5 12.5- 76.3- 4.0 1.0---- 3.6------------
1987-07-23 18.3 24.8 9.8- 71.3- 1.3 1.0---- 3.1------------
1987-07-22 17.8 22.5 11.3- 77.8- 5.3 1.0---- 0.0------------
1987-07-21 18.3 25.0 10.8- 83.3- 2.3 1.0---- 0.0------------
1987-07-20 20.6 24.6 12.8- 72.8- 4.0 1.7---- 0.0------------
1987-07-19 22.6 28.5 12.7- 72.8- 3.0 1.3---- 0.8------------
1987-07-18 20.6 27.0 10.7- 75.0- 2.7 1.0---- 0.0------------
1987-07-17 20.3 26.5 12.3- 66.8- 4.0 1.3---- 0.5------------
1987-07-16 17.6 24.7 9.7- 77.8- 3.0 1.3---- 0.0------------
1987-07-15 15.2 22.6 5.3- 71.5- 1.0 1.0---- 0.0------------
1987-07-14 14.8 18.7 10.7- 73.0- 3.7 1.0---- 0.0------------
1987-07-13 16.4 21.9 10.9- 78.8- 4.0 1.0---- 0.0------------
1987-07-12 18.3 25.7 8.0- 60.8- 3.7 1.0---- 11.0------------
1987-07-11 14.4 21.1 4.9- 60.5- 0.3 2.0---- 0.0------------
1987-07-10 12.4 17.1 7.3- 74.0- 1.3 1.3---- 0.0------------
1987-07-09 14.1 22.0 10.3- 89.0- 7.7 1.0---- 15.2------------
1987-07-08 18.0 26.0 7.8- 61.0- 0.0 1.7---- 0.0------------
1987-07-07 16.0 23.6 4.8- 66.3- 0.3 1.0---- 0.0------------
1987-07-06 13.1 19.9 5.9- 73.5- 0.0 1.0---- 0.0------------
1987-07-05 12.4 17.1 10.3- 88.3- 7.3 1.0---- 1.2------------
1987-07-04 16.4 20.3 10.8- 77.0- 5.0 1.3---- 0.0------------
1987-07-03 16.0 19.1 12.8- 80.3- 8.0 1.0---- 0.0------------
1987-07-02 17.6 24.3 13.3- 86.3- 5.3 1.3---- 0.0------------
1987-07-01 21.9 27.5 13.3- 69.3- 2.0 1.3---- 0.0------------
1987-06-30 20.1 26.0 11.5- 79.8- 4.3 1.0---- 0.0------------
1987-06-29 18.0 24.1 11.7- 77.3- 1.0 1.0---- 0.0------------
1987-06-28 16.3 22.1 9.3- 74.0- 5.0 1.3---- 0.0------------
1987-06-27 16.8 21.1 11.7- 82.5- 6.3 1.0---- 20.2------------
1987-06-26 13.7 22.1 3.0- 72.0- 2.3 1.3---- 0.0------------
1987-06-25 12.4 16.1 9.8- 75.3- 6.3 1.7---- 0.0------------
1987-06-24 13.4 18.6 8.5- 77.5- 6.7 1.7---- 7.3------------
1987-06-23 13.4 17.6 10.2- 85.5- 6.3 1.3---- 1.0------------
1987-06-22 11.7 15.6 9.1- 86.5- 8.0 1.0---- 5.0------------
1987-06-21 13.2 17.3 5.9- 80.5- 5.0 1.0---- 1.3------------
1987-06-20 12.1 17.8 2.0- 66.5- 5.0 1.3---- 0.2------------
1987-06-19 8.4 13.0 2.9- 73.8- 4.0 1.3---- 0.8------------
1987-06-18 7.5 13.7 1.8- 79.3- 5.7 2.3---- 1.5------------
1987-06-17 6.9 11.0 4.4- 82.0- 6.0 1.0---- 1.5------------
1987-06-16 13.1 23.3 7.5- 66.5- 7.3 2.3---- 4.5------------
1256.4 ms

 

Źródłem pochodzenia danych jest Instytut Meteorologii i Gospodarki Wodnej – Państwowy Instytut Badawczy. Dane Instytutu Meteorologii i Gospodarki Wodnej – Państwowego Instytutu Badawczego zostały przetworzone.

Dane źródłowe można odnaleźć na stronie https://dane.imgw.pl